sensor_id;sensor_type;location;lat;lon;timestamp;pressure;altitude;pressure_sealevel;temperature;humidity
55347;BME280;41218;55.700;38.270;2023-01-28T00:00:33;100505.44;;;-0.98;72.44
55347;BME280;41218;55.700;38.270;2023-01-28T00:05:34;100519.50;;;-0.91;72.86
55347;BME280;41218;55.700;38.270;2023-01-28T00:10:38;100520.63;;;-0.92;72.74
55347;BME280;41218;55.700;38.270;2023-01-28T00:15:39;100513.28;;;-0.92;73.30
55347;BME280;41218;55.700;38.270;2023-01-28T00:20:40;100514.09;;;-0.86;72.74
55347;BME280;41218;55.700;38.270;2023-01-28T00:25:40;100519.78;;;-0.88;72.86
55347;BME280;41218;55.700;38.270;2023-01-28T00:30:41;100517.63;;;-0.86;72.69
55347;BME280;41218;55.700;38.270;2023-01-28T00:35:41;100524.69;;;-0.85;73.27
55347;BME280;41218;55.700;38.270;2023-01-28T00:40:42;100512.72;;;-0.84;73.29
55347;BME280;41218;55.700;38.270;2023-01-28T00:45:44;100526.84;;;-0.76;73.16
55347;BME280;41218;55.700;38.270;2023-01-28T00:50:44;100513.03;;;-0.85;73.08
55347;BME280;41218;55.700;38.270;2023-01-28T00:55:45;100522.78;;;-0.79;73.20
55347;BME280;41218;55.700;38.270;2023-01-28T01:00:45;100537.44;;;-0.75;73.20
55347;BME280;41218;55.700;38.270;2023-01-28T01:05:46;100534.97;;;-0.76;73.53
55347;BME280;41218;55.700;38.270;2023-01-28T01:10:46;100530.34;;;-0.76;73.53
55347;BME280;41218;55.700;38.270;2023-01-28T01:15:47;100529.00;;;-0.78;73.53
55347;BME280;41218;55.700;38.270;2023-01-28T01:20:47;100528.22;;;-0.79;73.58
55347;BME280;41218;55.700;38.270;2023-01-28T01:25:49;100536.88;;;-0.77;73.67
55347;BME280;41218;55.700;38.270;2023-01-28T01:30:49;100542.31;;;-0.77;73.54
55347;BME280;41218;55.700;38.270;2023-01-28T01:35:53;100531.72;;;-0.84;73.70
55347;BME280;41218;55.700;38.270;2023-01-28T01:40:58;100528.50;;;-0.91;73.63
55347;BME280;41218;55.700;38.270;2023-01-28T01:46:00;100536.34;;;-0.84;73.71
55347;BME280;41218;55.700;38.270;2023-01-28T01:51:05;100530.91;;;-0.84;73.95
55347;BME280;41218;55.700;38.270;2023-01-28T01:56:10;100526.31;;;-0.94;73.92
55347;BME280;41218;55.700;38.270;2023-01-28T02:01:13;100516.25;;;-0.93;74.16
55347;BME280;41218;55.700;38.270;2023-01-28T02:06:14;100516.03;;;-0.97;74.47
55347;BME280;41218;55.700;38.270;2023-01-28T02:11:16;100516.25;;;-0.93;74.16
55347;BME280;41218;55.700;38.270;2023-01-28T02:16:17;100517.91;;;-0.97;74.57
55347;BME280;41218;55.700;38.270;2023-01-28T02:21:40;100532.84;;;-0.95;74.46
55347;BME280;41218;55.700;38.270;2023-01-28T02:32:06;100527.94;;;-0.98;74.50
55347;BME280;41218;55.700;38.270;2023-01-28T02:37:11;100543.41;;;-0.93;73.94
55347;BME280;41218;55.700;38.270;2023-01-28T02:42:24;100540.19;;;-1.01;73.94
55347;BME280;41218;55.700;38.270;2023-01-28T02:47:26;100535.03;;;-1.07;74.04
55347;BME280;41218;55.700;38.270;2023-01-28T02:58:36;100561.09;;;-1.11;74.31
55347;BME280;41218;55.700;38.270;2023-01-28T03:04:02;100562.44;;;-1.19;74.35
55347;BME280;41218;55.700;38.270;2023-01-28T03:09:06;100550.25;;;-1.22;74.05
55347;BME280;41218;55.700;38.270;2023-01-28T03:14:24;100556.75;;;-1.28;74.15
55347;BME280;41218;55.700;38.270;2023-01-28T03:19:44;100572.19;;;-1.28;74.01
55347;BME280;41218;55.700;38.270;2023-01-28T03:25:05;100577.88;;;-1.35;74.49
55347;BME280;41218;55.700;38.270;2023-01-28T03:30:35;100566.47;;;-1.42;74.18
55347;BME280;41218;55.700;38.270;2023-01-28T03:35:56;100571.38;;;-1.49;74.18
55347;BME280;41218;55.700;38.270;2023-01-28T03:41:22;100581.94;;;-1.43;74.07
55347;BME280;41218;55.700;38.270;2023-01-28T03:46:23;100568.91;;;-1.56;74.01
55347;BME280;41218;55.700;38.270;2023-01-28T03:51:23;100572.41;;;-1.61;74.09
55347;BME280;41218;55.700;38.270;2023-01-28T03:56:24;100584.34;;;-1.62;74.20
55347;BME280;41218;55.700;38.270;2023-01-28T04:01:27;100589.22;;;-1.64;73.92
55347;BME280;41218;55.700;38.270;2023-01-28T04:06:28;100584.63;;;-1.68;74.25
55347;BME280;41218;55.700;38.270;2023-01-28T04:11:28;100584.84;;;-1.75;74.02
55347;BME280;41218;55.700;38.270;2023-01-28T04:16:29;100593.00;;;-1.80;74.01
55347;BME280;41218;55.700;38.270;2023-01-28T04:21:29;100574.78;;;-1.95;74.08
55347;BME280;41218;55.700;38.270;2023-01-28T04:26:30;100588.91;;;-1.88;73.93
55347;BME280;41218;55.700;38.270;2023-01-28T04:31:31;100587.78;;;-1.92;73.79
55347;BME280;41218;55.700;38.270;2023-01-28T04:36:32;100585.88;;;-2.02;74.14
55347;BME280;41218;55.700;38.270;2023-01-28T04:41:32;100595.91;;;-2.02;74.16
55347;BME280;41218;55.700;38.270;2023-01-28T04:46:33;100603.97;;;-2.07;73.98
55347;BME280;41218;55.700;38.270;2023-01-28T04:51:33;100595.81;;;-2.17;73.85
55347;BME280;41218;55.700;38.270;2023-01-28T04:56:34;100611.00;;;-2.11;73.99
55347;BME280;41218;55.700;38.270;2023-01-28T05:01:34;100599.63;;;-2.13;73.60
55347;BME280;41218;55.700;38.270;2023-01-28T05:06:35;100609.41;;;-2.12;73.92
55347;BME280;41218;55.700;38.270;2023-01-28T05:11:35;100610.22;;;-2.12;73.52
55347;BME280;41218;55.700;38.270;2023-01-28T05:16:36;100611.50;;;-2.19;73.96
55347;BME280;41218;55.700;38.270;2023-01-28T05:21:36;100627.00;;;-2.15;74.04
55347;BME280;41218;55.700;38.270;2023-01-28T05:26:37;100626.16;;;-2.20;73.58
55347;BME280;41218;55.700;38.270;2023-01-28T05:31:38;100627.22;;;-2.27;73.57
55347;BME280;41218;55.700;38.270;2023-01-28T05:36:38;100629.56;;;-2.35;73.35
55347;BME280;41218;55.700;38.270;2023-01-28T05:41:40;100635.47;;;-2.44;73.69
55347;BME280;41218;55.700;38.270;2023-01-28T05:46:40;100628.72;;;-2.46;73.30
55347;BME280;41218;55.700;38.270;2023-01-28T05:51:44;100621.94;;;-2.44;73.51
55347;BME280;41218;55.700;38.270;2023-01-28T05:56:45;100634.16;;;-2.41;73.38
55347;BME280;41218;55.700;38.270;2023-01-28T06:01:46;100632.22;;;-2.46;73.12
55347;BME280;41218;55.700;38.270;2023-01-28T06:06:46;100639.25;;;-2.50;73.55
55347;BME280;41218;55.700;38.270;2023-01-28T06:11:47;100651.97;;;-2.50;73.35
55347;BME280;41218;55.700;38.270;2023-01-28T06:16:49;100634.06;;;-2.56;73.36
55347;BME280;41218;55.700;38.270;2023-01-28T06:21:51;100653.53;;;-2.59;73.19
55347;BME280;41218;55.700;38.270;2023-01-28T06:26:54;100651.81;;;-2.71;73.10
55347;BME280;41218;55.700;38.270;2023-01-28T06:31:55;100651.00;;;-2.71;73.17
55347;BME280;41218;55.700;38.270;2023-01-28T06:36:55;100656.16;;;-2.70;73.28
55347;BME280;41218;55.700;38.270;2023-01-28T06:41:56;100657.25;;;-2.71;72.97
55347;BME280;41218;55.700;38.270;2023-01-28T06:46:57;100656.97;;;-2.69;73.25
55347;BME280;41218;55.700;38.270;2023-01-28T06:51:57;100643.38;;;-2.79;73.26
55347;BME280;41218;55.700;38.270;2023-01-28T06:56:58;100660.25;;;-2.67;73.20
55347;BME280;41218;55.700;38.270;2023-01-28T07:01:58;100664.56;;;-2.66;72.93
55347;BME280;41218;55.700;38.270;2023-01-28T07:06:59;100662.13;;;-2.68;73.15
55347;BME280;41218;55.700;38.270;2023-01-28T07:11:59;100657.50;;;-2.72;73.09
55347;BME280;41218;55.700;38.270;2023-01-28T07:17:00;100653.72;;;-2.71;73.21
55347;BME280;41218;55.700;38.270;2023-01-28T07:22:00;100670.84;;;-2.60;73.32
55347;BME280;41218;55.700;38.270;2023-01-28T07:27:02;100664.06;;;-2.63;73.37
55347;BME280;41218;55.700;38.270;2023-01-28T07:32:03;100650.47;;;-2.68;72.93
55347;BME280;41218;55.700;38.270;2023-01-28T07:37:06;100656.19;;;-2.65;73.03
55347;BME280;41218;55.700;38.270;2023-01-28T07:42:06;100661.63;;;-2.65;72.81
55347;BME280;41218;55.700;38.270;2023-01-28T07:47:08;100661.06;;;-2.67;73.02
55347;BME280;41218;55.700;38.270;2023-01-28T07:52:09;100649.13;;;-2.71;72.95
55347;BME280;41218;55.700;38.270;2023-01-28T07:57:09;100668.38;;;-2.62;73.13
55347;BME280;41218;55.700;38.270;2023-01-28T08:02:10;100662.94;;;-2.67;72.69
55347;BME280;41218;55.700;38.270;2023-01-28T08:07:12;100662.09;;;-2.73;72.91
55347;BME280;41218;55.700;38.270;2023-01-28T08:12:13;100648.81;;;-2.74;72.63
55347;BME280;41218;55.700;38.270;2023-01-28T08:17:13;100661.91;;;-2.61;72.86
55347;BME280;41218;55.700;38.270;2023-01-28T08:22:13;100660.81;;;-2.60;72.35
55347;BME280;41218;55.700;38.270;2023-01-28T08:27:17;100651.09;;;-2.56;72.91
55347;BME280;41218;55.700;38.270;2023-01-28T08:32:17;100649.00;;;-2.49;72.83
55347;BME280;41218;55.700;38.270;2023-01-28T08:37:18;100638.97;;;-2.48;73.03
55347;BME280;41218;55.700;38.270;2023-01-28T08:42:18;100654.78;;;-2.35;73.04
55347;BME280;41218;55.700;38.270;2023-01-28T08:47:19;100649.13;;;-2.28;72.52
55347;BME280;41218;55.700;38.270;2023-01-28T08:52:19;100648.56;;;-2.30;72.51
55347;BME280;41218;55.700;38.270;2023-01-28T08:57:20;100657.00;;;-2.27;72.72
55347;BME280;41218;55.700;38.270;2023-01-28T09:02:20;100645.88;;;-2.30;72.34
55347;BME280;41218;55.700;38.270;2023-01-28T09:07:21;100642.34;;;-2.31;72.12
55347;BME280;41218;55.700;38.270;2023-01-28T09:12:22;100639.66;;;-2.26;72.44
55347;BME280;41218;55.700;38.270;2023-01-28T09:17:22;100648.63;;;-2.20;72.43
55347;BME280;41218;55.700;38.270;2023-01-28T09:22:23;100633.44;;;-2.26;72.28
55347;BME280;41218;55.700;38.270;2023-01-28T09:27:23;100630.19;;;-2.23;72.24
55347;BME280;41218;55.700;38.270;2023-01-28T09:32:24;100649.19;;;-2.18;72.12
55347;BME280;41218;55.700;38.270;2023-01-28T09:37:24;100640.75;;;-2.22;72.06
55347;BME280;41218;55.700;38.270;2023-01-28T09:47:53;100639.44;;;-2.14;71.56
55347;BME280;41218;55.700;38.270;2023-01-28T09:52:58;100626.72;;;-2.13;71.96
55347;BME280;41218;55.700;38.270;2023-01-28T09:58:00;100624.28;;;-2.15;72.23
55347;BME280;41218;55.700;38.270;2023-01-28T10:03:18;100603.38;;;-2.19;71.87
55347;BME280;41218;55.700;38.270;2023-01-28T10:13:53;100602.38;;;-2.08;71.66
55347;BME280;41218;55.700;38.270;2023-01-28T10:19:06;100596.41;;;-2.05;72.21
55347;BME280;41218;55.700;38.270;2023-01-28T10:24:31;100602.69;;;-1.94;71.98
55347;BME280;41218;55.700;38.270;2023-01-28T10:29:32;100603.81;;;-1.85;71.67
55347;BME280;41218;55.700;38.270;2023-01-28T10:34:34;100591.59;;;-1.88;71.73
55347;BME280;41218;55.700;38.270;2023-01-28T10:39:35;100573.44;;;-1.92;71.55
55347;BME280;41218;55.700;38.270;2023-01-28T10:44:38;100584.88;;;-1.70;71.46
55347;BME280;41218;55.700;38.270;2023-01-28T10:49:46;100580.56;;;-1.66;71.00
55347;BME280;41218;55.700;38.270;2023-01-28T10:54:58;100580.28;;;-1.64;71.08
55347;BME280;41218;55.700;38.270;2023-01-28T11:05:20;100583.81;;;-1.58;71.28
55347;BME280;41218;55.700;38.270;2023-01-28T11:10:33;100579.78;;;-1.56;71.18
55347;BME280;41218;55.700;38.270;2023-01-28T11:15:34;100570.28;;;-1.53;70.94
55347;BME280;41218;55.700;38.270;2023-01-28T11:20:39;100554.81;;;-1.53;71.15
55347;BME280;41218;55.700;38.270;2023-01-28T11:25:40;100554.28;;;-1.45;71.08
55347;BME280;41218;55.700;38.270;2023-01-28T11:30:40;100565.94;;;-1.39;70.75
55347;BME280;41218;55.700;38.270;2023-01-28T11:35:41;100564.88;;;-1.43;70.91
55347;BME280;41218;55.700;38.270;2023-01-28T11:40:51;100550.47;;;-1.49;70.76
55347;BME280;41218;55.700;38.270;2023-01-28T11:46:16;100564.03;;;-1.38;70.80
55347;BME280;41218;55.700;38.270;2023-01-28T11:51:31;100539.38;;;-1.37;70.65
55347;BME280;41218;55.700;38.270;2023-01-28T11:56:45;100543.72;;;-1.31;70.61
55347;BME280;41218;55.700;38.270;2023-01-28T12:02:03;100540.75;;;-1.29;70.86
55347;BME280;41218;55.700;38.270;2023-01-28T12:17:57;100510.63;;;-1.28;70.67
55347;BME280;41218;55.700;38.270;2023-01-28T12:23:16;100517.66;;;-1.32;70.42
55347;BME280;41218;55.700;38.270;2023-01-28T12:44:40;100496.50;;;-1.40;70.34
55347;BME280;41218;55.700;38.270;2023-01-28T12:50:10;100492.19;;;-1.41;70.54
55347;BME280;41218;55.700;38.270;2023-01-28T13:00:33;100500.03;;;-1.45;70.66
55347;BME280;41218;55.700;38.270;2023-01-28T13:05:50;100495.44;;;-1.44;70.76
55347;BME280;41218;55.700;38.270;2023-01-28T13:10:52;100493.53;;;-1.49;70.36
55347;BME280;41218;55.700;38.270;2023-01-28T13:15:54;100485.41;;;-1.49;70.62
55347;BME280;41218;55.700;38.270;2023-01-28T13:20:55;100492.19;;;-1.46;70.90
55347;BME280;41218;55.700;38.270;2023-01-28T13:25:56;100499.75;;;-1.38;70.83
55347;BME280;41218;55.700;38.270;2023-01-28T13:31:13;100482.41;;;-1.42;70.85
55347;BME280;41218;55.700;38.270;2023-01-28T13:41:17;100479.16;;;-1.44;70.46
55347;BME280;41218;55.700;38.270;2023-01-28T13:46:29;100486.75;;;-1.41;70.39
55347;BME280;41218;55.700;38.270;2023-01-28T13:51:36;100479.44;;;-1.51;70.65
55347;BME280;41218;55.700;38.270;2023-01-28T14:18:38;100449.06;;;-1.53;70.86
55347;BME280;41218;55.700;38.270;2023-01-28T14:23:54;100454.78;;;-1.49;70.60
55347;BME280;41218;55.700;38.270;2023-01-28T14:34:35;100460.19;;;-1.49;70.62
55347;BME280;41218;55.700;38.270;2023-01-28T14:40:06;100441.75;;;-1.52;70.83
55347;BME280;41218;55.700;38.270;2023-01-28T15:01:02;100450.16;;;-1.59;70.65
55347;BME280;41218;55.700;38.270;2023-01-28T15:06:13;100443.91;;;-1.54;70.69
55347;BME280;41218;55.700;38.270;2023-01-28T15:11:18;100450.72;;;-1.52;70.95
55347;BME280;41218;55.700;38.270;2023-01-28T15:16:25;100447.72;;;-1.50;70.73
55347;BME280;41218;55.700;38.270;2023-01-28T15:21:30;100437.16;;;-1.52;70.77
55347;BME280;41218;55.700;38.270;2023-01-28T15:26:32;100437.97;;;-1.51;70.45
55347;BME280;41218;55.700;38.270;2023-01-28T15:31:46;100431.19;;;-1.54;70.70
55347;BME280;41218;55.700;38.270;2023-01-28T15:36:49;100432.53;;;-1.56;70.98
55347;BME280;41218;55.700;38.270;2023-01-28T15:42:02;100428.22;;;-1.57;70.73
55347;BME280;41218;55.700;38.270;2023-01-28T15:47:14;100426.03;;;-1.61;70.88
55347;BME280;41218;55.700;38.270;2023-01-28T15:52:16;100401.91;;;-1.77;70.63
55347;BME280;41218;55.700;38.270;2023-01-28T15:57:21;100418.44;;;-1.69;70.73
55347;BME280;41218;55.700;38.270;2023-01-28T16:02:24;100428.22;;;-1.68;70.87
55347;BME280;41218;55.700;38.270;2023-01-28T16:07:28;100410.59;;;-1.70;70.90
55347;BME280;41218;55.700;38.270;2023-01-28T16:12:29;100410.88;;;-1.72;70.58
55347;BME280;41218;55.700;38.270;2023-01-28T16:17:37;100408.13;;;-1.67;70.99
55347;BME280;41218;55.700;38.270;2023-01-28T16:22:39;100394.06;;;-1.74;70.82
55347;BME280;41218;55.700;38.270;2023-01-28T16:27:42;100396.75;;;-1.69;71.20
55347;BME280;41218;55.700;38.270;2023-01-28T16:32:43;100387.00;;;-1.70;70.92
55347;BME280;41218;55.700;38.270;2023-01-28T16:37:44;100399.22;;;-1.62;71.16
55347;BME280;41218;55.700;38.270;2023-01-28T16:42:45;100393.22;;;-1.59;71.15
55347;BME280;41218;55.700;38.270;2023-01-28T16:47:48;100387.53;;;-1.63;71.14
55347;BME280;41218;55.700;38.270;2023-01-28T16:52:50;100371.03;;;-1.71;70.26
55347;BME280;41218;55.700;38.270;2023-01-28T16:57:55;100372.09;;;-1.67;70.89
55347;BME280;41218;55.700;38.270;2023-01-28T17:02:56;100366.69;;;-1.77;71.01
55347;BME280;41218;55.700;38.270;2023-01-28T17:07:57;100370.75;;;-1.75;70.92
55347;BME280;41218;55.700;38.270;2023-01-28T17:12:58;100371.84;;;-1.66;71.29
55347;BME280;41218;55.700;38.270;2023-01-28T17:17:59;100363.69;;;-1.71;70.80
55347;BME280;41218;55.700;38.270;2023-01-28T17:22:59;100365.88;;;-1.68;71.27
55347;BME280;41218;55.700;38.270;2023-01-28T17:28:00;100358.28;;;-1.71;70.99
55347;BME280;41218;55.700;38.270;2023-01-28T17:33:01;100345.53;;;-1.75;71.11
55347;BME280;41218;55.700;38.270;2023-01-28T17:38:02;100345.81;;;-1.72;70.99
55347;BME280;41218;55.700;38.270;2023-01-28T17:43:02;100354.22;;;-1.68;71.18
55347;BME280;41218;55.700;38.270;2023-01-28T17:48:03;100345.81;;;-1.72;71.14
55347;BME280;41218;55.700;38.270;2023-01-28T17:53:04;100348.78;;;-1.73;71.64
55347;BME280;41218;55.700;38.270;2023-01-28T17:58:04;100354.50;;;-1.70;71.52
55347;BME280;41218;55.700;38.270;2023-01-28T18:03:05;100329.81;;;-1.73;71.32
55347;BME280;41218;55.700;38.270;2023-01-28T18:08:06;100333.34;;;-1.73;71.62
55347;BME280;41218;55.700;38.270;2023-01-28T18:13:07;100339.31;;;-1.71;71.34
55347;BME280;41218;55.700;38.270;2023-01-28T18:18:07;100330.91;;;-1.69;71.67
55347;BME280;41218;55.700;38.270;2023-01-28T18:23:08;100324.41;;;-1.73;71.44
55347;BME280;41218;55.700;38.270;2023-01-28T18:28:09;100336.59;;;-1.66;71.43
55347;BME280;41218;55.700;38.270;2023-01-28T18:33:09;100326.28;;;-1.69;71.61
55347;BME280;41218;55.700;38.270;2023-01-28T18:38:10;100319.00;;;-1.68;71.40
55347;BME280;41218;55.700;38.270;2023-01-28T18:43:12;100324.38;;;-1.63;71.61
55347;BME280;41218;55.700;38.270;2023-01-28T18:48:13;100313.84;;;-1.70;71.39
55347;BME280;41218;55.700;38.270;2023-01-28T18:53:14;100307.84;;;-1.67;71.67
55347;BME280;41218;55.700;38.270;2023-01-28T18:58:14;100301.63;;;-1.67;71.44
55347;BME280;41218;55.700;38.270;2023-01-28T19:03:15;100308.13;;;-1.63;71.41
55347;BME280;41218;55.700;38.270;2023-01-28T19:08:16;100294.06;;;-1.70;71.54
55347;BME280;41218;55.700;38.270;2023-01-28T19:13:17;100292.16;;;-1.70;71.78
55347;BME280;41218;55.700;38.270;2023-01-28T19:18:18;100294.28;;;-1.67;71.83
55347;BME280;41218;55.700;38.270;2023-01-28T19:23:18;100291.06;;;-1.64;71.61
55347;BME280;41218;55.700;38.270;2023-01-28T19:28:19;100283.47;;;-1.67;71.68
55347;BME280;41218;55.700;38.270;2023-01-28T19:33:20;100283.75;;;-1.68;71.65
55347;BME280;41218;55.700;38.270;2023-01-28T19:38:20;100273.97;;;-1.69;71.66
55347;BME280;41218;55.700;38.270;2023-01-28T19:43:21;100279.94;;;-1.67;71.57
55347;BME280;41218;55.700;38.270;2023-01-28T19:48:22;100284.00;;;-1.65;71.64
55347;BME280;41218;55.700;38.270;2023-01-28T19:53:23;100275.63;;;-1.68;71.48
55347;BME280;41218;55.700;38.270;2023-01-28T19:58:24;100267.19;;;-1.67;71.70
55347;BME280;41218;55.700;38.270;2023-01-28T20:03:24;100273.16;;;-1.65;71.56
55347;BME280;41218;55.700;38.270;2023-01-28T20:08:25;100276.69;;;-1.64;71.71
55347;BME280;41218;55.700;38.270;2023-01-28T20:13:25;100259.06;;;-1.67;71.56
55347;BME280;41218;55.700;38.270;2023-01-28T20:18:26;100260.44;;;-1.64;71.51
55347;BME280;41218;55.700;38.270;2023-01-28T20:23:27;100241.72;;;-1.71;71.37
55347;BME280;41218;55.700;38.270;2023-01-28T20:28:27;100238.75;;;-1.64;71.71
55347;BME280;41218;55.700;38.270;2023-01-28T20:33:28;100233.88;;;-1.67;71.55
55347;BME280;41218;55.700;38.270;2023-01-28T20:38:29;100243.59;;;-1.61;71.84
55347;BME280;41218;55.700;38.270;2023-01-28T20:43:32;100231.16;;;-1.62;71.69
55347;BME280;41218;55.700;38.270;2023-01-28T20:48:33;100204.88;;;-1.72;71.70
55347;BME280;41218;55.700;38.270;2023-01-28T20:53:33;100214.34;;;-1.64;71.83
55347;BME280;41218;55.700;38.270;2023-01-28T20:58:34;100224.91;;;-1.63;71.28
55347;BME280;41218;55.700;38.270;2023-01-28T21:03:35;100216.22;;;-1.65;71.76
55347;BME280;41218;55.700;38.270;2023-01-28T21:08:35;100206.50;;;-1.66;71.70
55347;BME280;41218;55.700;38.270;2023-01-28T21:13:36;100206.75;;;-1.62;71.71
55347;BME280;41218;55.700;38.270;2023-01-28T21:18:37;100199.44;;;-1.67;71.95
55347;BME280;41218;55.700;38.270;2023-01-28T21:23:37;100189.41;;;-1.66;71.70
55347;BME280;41218;55.700;38.270;2023-01-28T21:28:38;100195.13;;;-1.68;71.98
55347;BME280;41218;55.700;38.270;2023-01-28T21:33:39;100195.06;;;-1.63;72.12
55347;BME280;41218;55.700;38.270;2023-01-28T21:38:40;100181.53;;;-1.63;72.02
55347;BME280;41218;55.700;38.270;2023-01-28T21:43:40;100180.97;;;-1.59;72.11
55347;BME280;41218;55.700;38.270;2023-01-28T21:48:41;100180.72;;;-1.63;71.77
55347;BME280;41218;55.700;38.270;2023-01-28T21:53:41;100176.41;;;-1.64;71.88
55347;BME280;41218;55.700;38.270;2023-01-28T21:58:42;100172.59;;;-1.63;71.95
55347;BME280;41218;55.700;38.270;2023-01-28T22:04:01;100168.81;;;-1.62;72.09
55347;BME280;41218;55.700;38.270;2023-01-28T22:09:02;100168.50;;;-1.61;72.04
55347;BME280;41218;55.700;38.270;2023-01-28T22:14:04;100156.06;;;-1.62;72.06
55347;BME280;41218;55.700;38.270;2023-01-28T22:19:04;100154.13;;;-1.56;72.04
55347;BME280;41218;55.700;38.270;2023-01-28T22:24:16;100138.72;;;-1.66;72.03
55347;BME280;41218;55.700;38.270;2023-01-28T22:29:19;100144.63;;;-1.58;72.08
55347;BME280;41218;55.700;38.270;2023-01-28T22:34:20;100147.06;;;-1.57;71.93
55347;BME280;41218;55.700;38.270;2023-01-28T22:39:21;100143.28;;;-1.56;72.02
55347;BME280;41218;55.700;38.270;2023-01-28T22:44:21;100118.66;;;-1.65;72.22
55347;BME280;41218;55.700;38.270;2023-01-28T22:49:22;100107.28;;;-1.67;72.08
55347;BME280;41218;55.700;38.270;2023-01-28T22:54:22;100112.69;;;-1.67;72.29
55347;BME280;41218;55.700;38.270;2023-01-28T22:59:23;100104.28;;;-1.65;72.60
55347;BME280;41218;55.700;38.270;2023-01-28T23:04:23;100093.72;;;-1.62;72.44
55347;BME280;41218;55.700;38.270;2023-01-28T23:09:24;100092.59;;;-1.61;72.06
55347;BME280;41218;55.700;38.270;2023-01-28T23:14:24;100069.88;;;-1.65;72.43
55347;BME280;41218;55.700;38.270;2023-01-28T23:19:43;100064.69;;;-1.61;72.33
55347;BME280;41218;55.700;38.270;2023-01-28T23:25:03;100068.75;;;-1.58;72.39
55347;BME280;41218;55.700;38.270;2023-01-28T23:30:05;100069.78;;;-1.54;72.25
55347;BME280;41218;55.700;38.270;2023-01-28T23:35:09;100073.88;;;-1.52;72.38
55347;BME280;41218;55.700;38.270;2023-01-28T23:40:11;100062.72;;;-1.50;72.69
55347;BME280;41218;55.700;38.270;2023-01-28T23:45:12;100060.31;;;-1.52;72.43
55347;BME280;41218;55.700;38.270;2023-01-28T23:50:13;100061.88;;;-1.46;72.59
55347;BME280;41218;55.700;38.270;2023-01-28T23:55:14;100056.50;;;-1.51;72.34
